Time;durP1;ratioP1;P1;durP2;ratioP2;P2;SDS_P1;SDS_P2;PMS_P1;PMS_P2;Temp;Humidity;BMP_temperature;BMP_pressure;BME280_temperature;BME280_humidity;BME280_pressure;Samples;Min_cycle;Max_cycle;Signal;HPM_P1;HPM_P2
2024/01/29 00:00:53;;;;;;;0.40;0.40;;;4.30;80.90;;;;;;5051125;28;20193;-63
2024/01/29 00:03:19;;;;;;;0.40;0.40;;;4.30;79.90;;;;;;5051148;28;20190;-64
2024/01/29 00:05:45;;;;;;;0.40;0.40;;;4.40;79.20;;;;;;5049967;28;20185;-63
2024/01/29 00:08:11;;;;;;;0.40;0.40;;;4.30;78.10;;;;;;5051411;28;20182;-64
2024/01/29 00:10:37;;;;;;;0.50;0.50;;;4.30;78.00;;;;;;5051206;28;20696;-64
2024/01/29 00:13:02;;;;;;;1.17;0.50;;;4.30;79.40;;;;;;5051051;28;20281;-63
2024/01/29 00:15:28;;;;;;;0.60;0.50;;;4.30;81.00;;;;;;5051130;28;20186;-63
2024/01/29 00:17:54;;;;;;;0.50;0.50;;;4.30;80.90;;;;;;5051268;28;20440;-64
2024/01/29 00:20:19;;;;;;;0.60;0.60;;;4.30;78.80;;;;;;5049913;28;20180;-63
2024/01/29 00:22:45;;;;;;;0.40;0.40;;;4.30;77.10;;;;;;5050875;28;20190;-63
2024/01/29 00:25:11;;;;;;;0.40;0.40;;;4.40;74.90;;;;;;5051211;28;20405;-64
2024/01/29 00:27:36;;;;;;;0.50;0.40;;;4.40;75.00;;;;;;5051060;28;20616;-64
2024/01/29 00:30:03;;;;;;;0.40;0.40;;;4.40;76.70;;;;;;5050970;28;20181;-64
2024/01/29 00:32:29;;;;;;;1.10;0.45;;;4.30;77.50;;;;;;5050818;28;20190;-63
2024/01/29 00:34:55;;;;;;;0.82;0.40;;;4.30;79.00;;;;;;5051094;28;20596;-64
2024/01/29 00:37:22;;;;;;;0.85;0.60;;;4.30;79.50;;;;;;5051085;28;20171;-63
2024/01/29 00:39:49;;;;;;;0.50;0.40;;;4.30;79.90;;;;;;5051055;28;20178;-64
2024/01/29 00:42:15;;;;;;;0.60;0.50;;;4.40;79.00;;;;;;5050596;28;20240;-64
2024/01/29 00:44:41;;;;;;;0.40;0.40;;;4.40;76.50;;;;;;5050962;28;20214;-64
2024/01/29 00:47:06;;;;;;;0.40;0.40;;;4.40;76.90;;;;;;5050968;28;20206;-63
2024/01/29 00:49:32;;;;;;;0.40;0.40;;;4.40;77.40;;;;;;5050996;28;20178;-63
2024/01/29 00:51:59;;;;;;;0.60;0.50;;;4.40;77.00;;;;;;5050892;28;20483;-64
2024/01/29 00:54:24;;;;;;;0.30;0.30;;;4.30;77.40;;;;;;5054502;28;20619;-63
2024/01/29 00:56:50;;;;;;;0.50;0.50;;;4.40;78.60;;;;;;5054501;28;20202;-63
2024/01/29 00:59:16;;;;;;;0.53;0.53;;;4.30;79.10;;;;;;5054430;28;20265;-64
2024/01/29 01:01:41;;;;;;;0.50;0.50;;;4.30;80.20;;;;;;5054496;28;20178;-63
2024/01/29 01:04:07;;;;;;;0.40;0.40;;;4.40;80.80;;;;;;5054219;28;20289;-64
2024/01/29 01:06:33;;;;;;;0.40;0.40;;;4.40;80.30;;;;;;5054347;28;20708;-64
2024/01/29 01:08:59;;;;;;;0.40;0.40;;;4.40;79.00;;;;;;5054303;28;20225;-64
2024/01/29 01:11:24;;;;;;;0.50;0.43;;;4.40;77.00;;;;;;5053954;28;20163;-64
2024/01/29 01:13:51;;;;;;;0.40;0.40;;;4.40;75.80;;;;;;5054028;28;20190;-63
2024/01/29 01:16:17;;;;;;;0.40;0.40;;;4.40;75.20;;;;;;5054425;28;20610;-63
2024/01/29 01:18:43;;;;;;;0.40;0.40;;;4.50;74.20;;;;;;5055090;28;20362;-64
2024/01/29 01:21:08;;;;;;;0.40;0.40;;;4.40;73.60;;;;;;5054532;28;20660;-64
2024/01/29 01:23:34;;;;;;;0.40;0.40;;;4.40;73.70;;;;;;5053910;28;20432;-65
2024/01/29 01:26:00;;;;;;;0.40;0.40;;;4.40;74.00;;;;;;5053897;28;20220;-63
2024/01/29 01:28:25;;;;;;;0.40;0.40;;;4.50;72.70;;;;;;5053979;28;20166;-64
2024/01/29 01:30:51;;;;;;;0.30;0.30;;;4.50;72.50;;;;;;5053761;28;20212;-64
2024/01/29 01:33:16;;;;;;;1.20;0.53;;;4.50;73.50;;;;;;5053708;28;20217;-63
2024/01/29 01:35:42;;;;;;;0.50;0.50;;;4.40;75.10;;;;;;5053806;28;20167;-64
2024/01/29 01:38:08;;;;;;;0.70;0.63;;;4.40;76.90;;;;;;5053870;28;20190;-64
2024/01/29 01:40:33;;;;;;;0.50;0.50;;;4.40;78.70;;;;;;5052973;28;20174;-63
2024/01/29 01:42:59;;;;;;;0.40;0.40;;;4.30;78.80;;;;;;5053212;28;20210;-64
2024/01/29 01:45:25;;;;;;;0.40;0.40;;;4.40;78.30;;;;;;5053816;28;20180;-63
2024/01/29 01:47:50;;;;;;;0.80;0.40;;;4.30;77.80;;;;;;5053518;28;20190;-65
2024/01/29 01:50:16;;;;;;;0.60;0.60;;;4.40;78.40;;;;;;5053522;28;20170;-64
2024/01/29 01:52:43;;;;;;;0.50;0.40;;;4.40;78.60;;;;;;5053206;28;20272;-64
2024/01/29 01:55:08;;;;;;;0.40;0.40;;;4.50;76.40;;;;;;5053370;28;20564;-64
2024/01/29 01:57:37;;;;;;;0.77;0.53;;;4.50;74.70;;;;;;5053368;28;20173;-63
2024/01/29 02:00:03;;;;;;;0.40;0.40;;;4.50;74.30;;;;;;5052902;28;20198;-64
2024/01/29 02:02:29;;;;;;;0.40;0.40;;;4.50;73.60;;;;;;5053065;28;20244;-63
2024/01/29 02:04:55;;;;;;;0.40;0.40;;;4.50;74.00;;;;;;5052792;28;20266;-63
2024/01/29 02:07:21;;;;;;;0.40;0.40;;;4.60;74.00;;;;;;5053391;28;20296;-63
2024/01/29 02:09:47;;;;;;;0.60;0.60;;;4.50;74.30;;;;;;5053293;28;20171;-63
2024/01/29 02:12:13;;;;;;;0.43;0.40;;;4.50;75.00;;;;;;5053109;28;20521;-63
2024/01/29 02:14:39;;;;;;;0.50;0.50;;;4.50;75.90;;;;;;5053430;28;20432;-63
2024/01/29 02:17:04;;;;;;;0.40;0.40;;;4.30;78.70;;;;;;5053418;28;20174;-63
2024/01/29 02:19:30;;;;;;;0.60;0.60;;;4.30;79.80;;;;;;5053336;28;20179;-63
2024/01/29 02:21:56;;;;;;;0.60;0.60;;;4.20;79.20;;;;;;5053099;28;20432;-63
2024/01/29 02:24:22;;;;;;;0.80;0.80;;;4.30;78.90;;;;;;5053108;28;20170;-63
2024/01/29 02:26:48;;;;;;;0.80;0.50;;;4.30;77.80;;;;;;5052892;28;20449;-63
2024/01/29 02:29:14;;;;;;;0.87;0.40;;;4.40;75.00;;;;;;5053125;28;20496;-63
2024/01/29 02:31:39;;;;;;;0.50;0.50;;;4.50;73.00;;;;;;5052734;28;20769;-63
2024/01/29 02:34:05;;;;;;;1.33;0.50;;;4.60;71.40;;;;;;5052749;28;20623;-63
2024/01/29 02:36:31;;;;;;;0.40;0.40;;;4.60;71.40;;;;;;5052928;28;20205;-63
2024/01/29 02:38:56;;;;;;;0.40;0.40;;;4.60;71.20;;;;;;5052785;28;20231;-63
2024/01/29 02:41:22;;;;;;;0.40;0.40;;;4.50;70.70;;;;;;5053832;28;20166;-63
2024/01/29 02:43:48;;;;;;;0.50;0.40;;;4.50;71.10;;;;;;5052738;28;20223;-63
2024/01/29 02:46:13;;;;;;;0.50;0.40;;;4.40;73.10;;;;;;5052637;28;20202;-63
2024/01/29 02:48:39;;;;;;;0.40;0.40;;;4.40;76.10;;;;;;5052751;28;20244;-63
2024/01/29 02:51:06;;;;;;;0.30;0.30;;;4.50;77.20;;;;;;5052444;28;20202;-63
2024/01/29 02:53:31;;;;;;;0.40;0.40;;;4.40;77.80;;;;;;5052162;28;20202;-63
2024/01/29 02:55:57;;;;;;;0.40;0.40;;;4.40;78.00;;;;;;5052344;28;20665;-63
2024/01/29 02:58:23;;;;;;;0.40;0.40;;;4.40;78.30;;;;;;5052435;28;20609;-63
2024/01/29 03:00:48;;;;;;;0.40;0.40;;;4.40;78.40;;;;;;5052281;28;20166;-63
2024/01/29 03:03:14;;;;;;;0.70;0.70;;;4.40;77.80;;;;;;5052239;28;20247;-63
2024/01/29 03:05:40;;;;;;;0.50;0.50;;;4.50;76.20;;;;;;5052308;28;20445;-63
2024/01/29 03:08:06;;;;;;;0.33;0.33;;;4.50;73.20;;;;;;5052298;28;20174;-63
2024/01/29 03:10:32;;;;;;;0.30;0.30;;;4.60;71.10;;;;;;5052426;28;20170;-63
2024/01/29 03:12:58;;;;;;;0.40;0.40;;;4.60;67.90;;;;;;5051937;28;20195;-63
2024/01/29 03:15:24;;;;;;;0.50;0.50;;;4.70;67.00;;;;;;5051766;28;20538;-63
2024/01/29 03:17:50;;;;;;;0.40;0.40;;;4.70;69.30;;;;;;5052137;28;20614;-63
2024/01/29 03:20:16;;;;;;;2.67;0.57;;;4.70;70.50;;;;;;5052175;28;20237;-63
2024/01/29 03:22:41;;;;;;;0.40;0.40;;;4.70;72.60;;;;;;5051867;28;20620;-63
2024/01/29 03:25:07;;;;;;;0.40;0.40;;;4.70;75.40;;;;;;5051948;28;20428;-63
2024/01/29 03:27:33;;;;;;;1.57;1.20;;;4.60;76.20;;;;;;5051836;28;20236;-63
2024/01/29 03:29:59;;;;;;;1.03;0.80;;;4.60;76.70;;;;;;5050393;28;20220;-63
2024/01/29 03:32:24;;;;;;;0.90;0.80;;;4.60;76.10;;;;;;5051469;28;20194;-63
2024/01/29 03:34:50;;;;;;;2.30;0.60;;;4.60;76.40;;;;;;5051828;28;20548;-63
2024/01/29 03:37:15;;;;;;;0.40;0.40;;;4.60;76.60;;;;;;5051869;28;20178;-63
2024/01/29 03:39:41;;;;;;;1.37;0.60;;;4.60;77.40;;;;;;5051559;28;20182;-63
2024/01/29 03:42:07;;;;;;;0.40;0.40;;;4.70;75.60;;;;;;5051735;28;20179;-63
2024/01/29 03:44:33;;;;;;;0.40;0.40;;;4.70;73.70;;;;;;5048917;28;20189;-62
2024/01/29 03:46:58;;;;;;;0.40;0.40;;;4.70;72.20;;;;;;5051949;28;20605;-63
2024/01/29 03:49:24;;;;;;;0.40;0.40;;;4.70;71.60;;;;;;5051580;28;20174;-63
2024/01/29 03:51:50;;;;;;;0.47;0.40;;;4.70;70.90;;;;;;5051715;28;20174;-63
2024/01/29 03:54:15;;;;;;;0.40;0.40;;;4.70;68.80;;;;;;5051302;28;20280;-63
2024/01/29 03:56:41;;;;;;;0.70;0.60;;;4.70;68.90;;;;;;5050405;28;20167;-63
2024/01/29 03:59:10;;;;;;;1.07;0.40;;;4.80;71.80;;;;;;5051392;28;20175;-63
2024/01/29 04:01:37;;;;;;;0.50;0.40;;;4.80;73.70;;;;;;5051778;28;20177;-63
2024/01/29 04:04:03;;;;;;;0.40;0.40;;;4.80;74.40;;;;;;5052650;28;20474;-63
2024/01/29 04:06:29;;;;;;;0.40;0.40;;;4.70;75.00;;;;;;5051549;28;20194;-63
2024/01/29 04:08:54;;;;;;;0.50;0.50;;;4.70;75.30;;;;;;5051387;28;20702;-63
2024/01/29 04:11:20;;;;;;;0.50;0.40;;;4.70;75.90;;;;;;5051475;28;20172;-63
2024/01/29 04:13:46;;;;;;;0.40;0.40;;;4.60;78.00;;;;;;5051200;28;20576;-63
2024/01/29 04:16:11;;;;;;;0.43;0.43;;;4.60;77.60;;;;;;5051195;28;20174;-63
2024/01/29 04:18:38;;;;;;;1.80;0.40;;;4.60;77.60;;;;;;5051452;28;20548;-63
2024/01/29 04:21:05;;;;;;;0.40;0.40;;;4.60;77.10;;;;;;5051250;28;20163;-63
2024/01/29 04:23:32;;;;;;;0.40;0.40;;;4.60;76.80;;;;;;5051010;28;20191;-63
2024/01/29 04:25:57;;;;;;;0.40;0.40;;;4.60;76.20;;;;;;5051288;28;20201;-63
2024/01/29 04:28:23;;;;;;;0.40;0.40;;;4.70;76.40;;;;;;5053889;28;20542;-62
2024/01/29 04:30:49;;;;;;;0.40;0.40;;;4.70;74.90;;;;;;5055391;28;20197;-63
2024/01/29 04:33:14;;;;;;;0.40;0.40;;;4.80;74.20;;;;;;5055231;28;20605;-63
2024/01/29 04:35:40;;;;;;;0.40;0.40;;;4.80;74.10;;;;;;5055295;28;20813;-63
2024/01/29 04:38:06;;;;;;;0.40;0.40;;;4.80;73.90;;;;;;5054142;28;20178;-64
2024/01/29 04:40:33;;;;;;;0.30;0.30;;;4.80;72.30;;;;;;5052488;28;20246;-64
2024/01/29 04:42:58;;;;;;;0.40;0.40;;;4.80;73.10;;;;;;5053466;28;20277;-62
2024/01/29 04:45:26;;;;;;;0.40;0.40;;;4.80;73.10;;;;;;5054865;28;20202;-62
2024/01/29 04:47:51;;;;;;;0.38;0.38;;;4.80;73.80;;;;;;5054795;28;20204;-61
2024/01/29 04:50:17;;;;;;;0.40;0.40;;;4.90;74.70;;;;;;5054860;28;20171;-63
2024/01/29 04:52:43;;;;;;;2.30;0.97;;;4.90;72.70;;;;;;5051723;28;20553;-63
2024/01/29 04:55:09;;;;;;;0.47;0.47;;;5.00;71.70;;;;;;5052692;28;20436;-63
2024/01/29 04:57:34;;;;;;;0.53;0.40;;;5.00;71.00;;;;;;5052645;28;20179;-63
2024/01/29 05:00:00;;;;;;;0.40;0.40;;;5.00;71.00;;;;;;5052539;28;20248;-63
2024/01/29 05:02:25;;;;;;;0.40;0.40;;;5.00;72.20;;;;;;5052375;28;20675;-63
2024/01/29 05:04:51;;;;;;;0.50;0.40;;;4.90;74.70;;;;;;5052903;28;20182;-63
2024/01/29 05:07:17;;;;;;;0.40;0.40;;;4.90;75.40;;;;;;5053791;28;20191;-63
2024/01/29 05:09:42;;;;;;;0.40;0.40;;;4.90;76.60;;;;;;5054534;28;20681;-63
2024/01/29 05:12:08;;;;;;;0.40;0.40;;;4.90;77.10;;;;;;5053988;28;20163;-62
2024/01/29 05:14:33;;;;;;;0.40;0.40;;;4.80;77.90;;;;;;5054350;28;20216;-63
2024/01/29 05:16:59;;;;;;;0.50;0.50;;;4.90;78.20;;;;;;5054321;28;20167;-63
2024/01/29 05:19:25;;;;;;;0.50;0.50;;;5.00;77.70;;;;;;5054254;28;20220;-63
2024/01/29 05:21:50;;;;;;;0.60;0.47;;;5.00;76.60;;;;;;5053964;28;20644;-63
2024/01/29 05:24:16;;;;;;;0.40;0.40;;;5.00;76.10;;;;;;5053939;28;20190;-62
2024/01/29 05:26:42;;;;;;;0.40;0.40;;;5.10;76.80;;;;;;5055450;28;20263;-63
2024/01/29 05:29:07;;;;;;;0.40;0.40;;;5.00;76.50;;;;;;5054079;28;20225;-63
2024/01/29 05:31:33;;;;;;;0.40;0.40;;;5.00;77.20;;;;;;5053877;28;20224;-63
2024/01/29 05:33:59;;;;;;;0.40;0.40;;;5.00;77.40;;;;;;5053831;28;20245;-63
2024/01/29 05:36:24;;;;;;;0.50;0.50;;;4.90;77.60;;;;;;5053834;28;20502;-63
2024/01/29 05:38:50;;;;;;;0.50;0.50;;;4.90;78.10;;;;;;5052806;28;20183;-62
2024/01/29 05:41:16;;;;;;;0.50;0.50;;;5.00;78.20;;;;;;5053669;28;20304;-63
2024/01/29 05:43:41;;;;;;;0.40;0.40;;;5.00;77.30;;;;;;5053548;28;20747;-63
2024/01/29 05:46:07;;;;;;;0.50;0.50;;;5.00;77.20;;;;;;5053635;28;20208;-63
2024/01/29 05:48:32;;;;;;;0.60;0.60;;;5.00;78.10;;;;;;5053676;28;20174;-63
2024/01/29 05:50:58;;;;;;;0.40;0.40;;;5.00;77.10;;;;;;5053370;28;20170;-63
2024/01/29 05:53:24;;;;;;;0.40;0.40;;;5.00;76.50;;;;;;5053232;28;20210;-63
2024/01/29 05:55:49;;;;;;;0.50;0.50;;;5.00;76.20;;;;;;5053607;28;20590;-63
2024/01/29 05:58:15;;;;;;;0.40;0.40;;;5.00;76.10;;;;;;5053537;28;20201;-63
2024/01/29 06:00:41;;;;;;;0.57;0.57;;;5.00;76.20;;;;;;5053449;28;20183;-63
2024/01/29 06:03:06;;;;;;;0.80;0.80;;;5.00;76.60;;;;;;5053284;28;20201;-63
2024/01/29 06:05:32;;;;;;;4.10;0.87;;;5.00;77.10;;;;;;5053271;28;20171;-63
2024/01/29 06:07:57;;;;;;;1.10;1.00;;;5.00;77.00;;;;;;5053467;28;20296;-63
2024/01/29 06:10:23;;;;;;;0.87;0.60;;;5.00;77.20;;;;;;5053389;28;20182;-63
2024/01/29 06:12:49;;;;;;;0.50;0.50;;;5.00;77.20;;;;;;5052977;28;20298;-63
2024/01/29 06:15:15;;;;;;;0.50;0.50;;;5.00;77.20;;;;;;5053125;28;20213;-63
2024/01/29 06:17:40;;;;;;;0.40;0.40;;;5.00;75.60;;;;;;5053184;28;20182;-63
2024/01/29 06:20:07;;;;;;;0.40;0.40;;;5.00;74.90;;;;;;5052991;28;20183;-63
2024/01/29 06:22:33;;;;;;;0.47;0.40;;;5.00;74.50;;;;;;5052783;28;20281;-63
2024/01/29 06:24:58;;;;;;;0.50;0.50;;;5.00;74.70;;;;;;5053024;28;20312;-63
2024/01/29 06:27:24;;;;;;;0.77;0.40;;;5.00;74.30;;;;;;5052931;28;20199;-63
2024/01/29 06:29:50;;;;;;;2.63;0.60;;;4.90;74.40;;;;;;5052975;28;20197;-63
2024/01/29 06:32:15;;;;;;;0.93;0.60;;;4.90;74.60;;;;;;5052503;28;20420;-63
2024/01/29 06:34:41;;;;;;;0.40;0.40;;;5.00;75.10;;;;;;5052756;28;20244;-63
2024/01/29 06:37:07;;;;;;;0.50;0.50;;;4.90;75.50;;;;;;5052723;28;20170;-63
2024/01/29 06:39:32;;;;;;;0.70;0.63;;;4.90;76.20;;;;;;5052950;28;20435;-63
2024/01/29 06:41:58;;;;;;;0.77;0.60;;;4.80;76.90;;;;;;5052459;28;20174;-64
2024/01/29 06:44:24;;;;;;;0.60;0.60;;;4.80;77.90;;;;;;5052683;28;20173;-63
2024/01/29 06:46:49;;;;;;;1.10;0.80;;;4.70;77.90;;;;;;5052561;28;20437;-63
2024/01/29 06:49:27;;;;;;;0.73;0.73;;;4.70;78.00;;;;;;5053656;28;20205;-63
2024/01/29 06:51:53;;;;;;;0.50;0.50;;;4.70;77.90;;;;;;5052207;28;20279;-63
2024/01/29 06:54:18;;;;;;;0.50;0.50;;;4.70;77.80;;;;;;5052179;28;20213;-62
2024/01/29 06:56:44;;;;;;;0.50;0.50;;;4.70;77.40;;;;;;5052349;28;20930;-63
2024/01/29 06:59:11;;;;;;;0.60;0.60;;;4.60;77.20;;;;;;5052395;28;20261;-63
2024/01/29 07:01:37;;;;;;;0.40;0.40;;;4.60;77.10;;;;;;5052105;28;20933;-63
2024/01/29 07:04:03;;;;;;;1.08;0.55;;;4.70;76.90;;;;;;5051906;28;20209;-63
2024/01/29 07:06:29;;;;;;;1.25;0.90;;;4.70;77.10;;;;;;5052230;28;20839;-63
2024/01/29 07:08:55;;;;;;;0.60;0.50;;;4.70;77.50;;;;;;5052122;28;20183;-63
2024/01/29 07:11:20;;;;;;;0.70;0.70;;;4.80;77.60;;;;;;5051978;28;20181;-63
2024/01/29 07:13:46;;;;;;;0.57;0.57;;;4.80;76.20;;;;;;5051846;28;20698;-63
2024/01/29 07:16:12;;;;;;;0.50;0.50;;;4.90;73.80;;;;;;5051955;28;20170;-63
2024/01/29 07:18:37;;;;;;;0.63;0.50;;;5.00;74.00;;;;;;5051836;28;20173;-63
2024/01/29 07:21:03;;;;;;;0.60;0.50;;;4.90;74.10;;;;;;5051715;28;20179;-63
2024/01/29 07:23:29;;;;;;;0.53;0.53;;;5.00;75.70;;;;;;5051734;28;20194;-63
2024/01/29 07:25:55;;;;;;;0.60;0.60;;;5.10;76.60;;;;;;5051761;28;20455;-63
2024/01/29 07:28:21;;;;;;;0.98;0.82;;;5.10;76.50;;;;;;5051811;28;20247;-63
2024/01/29 07:30:46;;;;;;;1.10;1.03;;;5.20;76.60;;;;;;5051642;28;20644;-63
2024/01/29 07:33:12;;;;;;;0.80;0.80;;;5.30;76.20;;;;;;5051374;28;20186;-63
2024/01/29 07:35:38;;;;;;;0.80;0.70;;;5.40;75.80;;;;;;5051679;28;20174;-63
2024/01/29 07:38:05;;;;;;;0.77;0.77;;;5.50;74.50;;;;;;5051676;28;20253;-63
2024/01/29 07:40:32;;;;;;;0.40;0.40;;;5.60;74.70;;;;;;5051630;28;20227;-63
2024/01/29 07:42:59;;;;;;;1.48;0.90;;;5.70;74.60;;;;;;5051313;28;20573;-63
2024/01/29 07:45:25;;;;;;;0.70;0.70;;;5.70;74.60;;;;;;5051582;28;20181;-63
2024/01/29 07:47:52;;;;;;;0.63;0.63;;;5.80;74.50;;;;;;5051381;28;20730;-63
2024/01/29 07:50:17;;;;;;;0.50;0.50;;;6.00;74.00;;;;;;5051510;28;20181;-63
2024/01/29 07:52:43;;;;;;;0.40;0.40;;;6.10;74.00;;;;;;5051096;28;20214;-63
2024/01/29 07:55:09;;;;;;;0.60;0.60;;;6.20;75.10;;;;;;5051495;28;20176;-63
2024/01/29 07:57:35;;;;;;;0.53;0.53;;;6.40;76.00;;;;;;5051631;28;20444;-63
2024/01/29 08:00:01;;;;;;;0.47;0.47;;;6.50;76.20;;;;;;5051421;28;20716;-63
2024/01/29 08:02:30;;;;;;;0.70;0.70;;;6.60;76.80;;;;;;5050378;28;20213;-63
2024/01/29 08:04:55;;;;;;;0.40;0.40;;;6.90;77.20;;;;;;5051408;28;20166;-64
2024/01/29 08:07:21;;;;;;;1.10;0.83;;;7.60;76.70;;;;;;5051278;28;20198;-64
2024/01/29 08:09:47;;;;;;;0.80;0.80;;;8.70;73.90;;;;;;5049808;28;20257;-65
2024/01/29 08:12:13;;;;;;;1.53;1.30;;;9.80;70.50;;;;;;5052127;28;20276;-63
2024/01/29 08:14:39;;;;;;;0.73;0.73;;;11.00;68.90;;;;;;5050778;28;20409;-63
2024/01/29 08:17:05;;;;;;;2.90;0.77;;;12.10;66.70;;;;;;5047671;28;20210;-64
2024/01/29 08:19:31;;;;;;;0.90;0.90;;;13.30;63.90;;;;;;5044465;28;20588;-64
2024/01/29 08:21:57;;;;;;;0.80;0.80;;;14.10;61.00;;;;;;5030461;28;20887;-64
2024/01/29 08:24:24;;;;;;;0.50;0.50;;;14.50;58.50;;;;;;5031100;28;20952;-65
2024/01/29 08:26:50;;;;;;;0.60;0.60;;;15.30;56.60;;;;;;5046500;28;21060;-64
2024/01/29 08:29:16;;;;;;;0.83;0.83;;;16.20;56.00;;;;;;5050959;28;20420;-64
2024/01/29 08:31:41;;;;;;;0.97;0.87;;;17.20;53.60;;;;;;5050916;28;20236;-64
2024/01/29 08:34:07;;;;;;;0.67;0.67;;;18.30;50.80;;;;;;5050698;28;20196;-64
2024/01/29 08:36:34;;;;;;;0.80;0.80;;;18.80;49.20;;;;;;5051209;28;20281;-65
2024/01/29 08:38:59;;;;;;;1.20;1.10;;;18.80;47.80;;;;;;5051075;28;20398;-64
2024/01/29 08:41:25;;;;;;;2.20;1.87;;;18.60;47.10;;;;;;5050956;28;20181;-64
2024/01/29 08:43:51;;;;;;;0.90;0.90;;;18.30;48.10;;;;;;5050774;28;20664;-64
2024/01/29 08:46:16;;;;;;;1.17;0.80;;;17.80;48.30;;;;;;5050608;28;20240;-64
2024/01/29 08:48:42;;;;;;;1.33;1.17;;;17.40;48.40;;;;;;5051062;28;20179;-64
2024/01/29 08:51:08;;;;;;;1.40;1.13;;;17.20;49.40;;;;;;5050871;28;20628;-64
2024/01/29 08:53:33;;;;;;;1.07;1.00;;;17.00;48.80;;;;;;5050549;28;20527;-64
2024/01/29 08:55:59;;;;;;;1.57;1.30;;;16.90;48.70;;;;;;5050654;28;20181;-64
2024/01/29 08:58:25;;;;;;;2.23;1.60;;;16.70;49.00;;;;;;5050804;28;20230;-61
2024/01/29 09:00:53;;;;;;;2.07;1.70;;;16.70;50.00;;;;;;5050236;28;20628;-62
2024/01/29 09:03:20;;;;;;;1.50;1.40;;;16.80;50.60;;;;;;5050564;28;20692;-62
2024/01/29 09:05:48;;;;;;;1.50;1.40;;;16.80;50.60;;;;;;5050814;28;20405;-61
2024/01/29 09:08:17;;;;;;;2.53;1.70;;;17.00;50.50;;;;;;5047839;28;20429;-63
2024/01/29 09:10:43;;;;;;;1.40;1.30;;;17.40;50.70;;;;;;5050229;28;20725;-63
2024/01/29 09:13:12;;;;;;;1.47;1.37;;;17.70;50.50;;;;;;5050025;28;20424;-63
2024/01/29 09:15:38;;;;;;;3.27;2.10;;;17.90;50.70;;;;;;5052742;28;20538;-63
2024/01/29 09:18:05;;;;;;;1.57;1.47;;;18.00;50.20;;;;;;5054172;28;20405;-63
2024/01/29 09:20:31;;;;;;;2.67;1.70;;;17.90;49.90;;;;;;5054111;28;20432;-62
2024/01/29 09:22:56;;;;;;;1.73;1.63;;;17.90;50.00;;;;;;5053454;28;20422;-63
2024/01/29 09:25:25;;;;;;;6.87;4.53;;;18.00;49.70;;;;;;5053994;28;20180;-63
2024/01/29 09:27:51;;;;;;;4.73;3.97;;;18.20;50.80;;;;;;5053954;28;20203;-63
2024/01/29 09:30:16;;;;;;;8.30;4.80;;;18.50;51.50;;;;;;5053825;28;20415;-63
2024/01/29 09:32:42;;;;;;;6.70;5.60;;;18.80;50.70;;;;;;5054078;28;20198;-64
2024/01/29 09:35:08;;;;;;;6.83;4.27;;;19.10;48.20;;;;;;5054895;28;20248;-63
2024/01/29 09:37:35;;;;;;;2.40;2.20;;;19.40;46.20;;;;;;5053960;28;20227;-64
2024/01/29 09:40:01;;;;;;;7.30;4.90;;;19.50;46.00;;;;;;5053827;28;20416;-63
2024/01/29 09:42:29;;;;;;;4.07;3.40;;;19.40;46.50;;;;;;5053340;28;20946;-63
2024/01/29 09:44:58;;;;;;;8.53;4.33;;;19.20;47.10;;;;;;5052363;28;20437;-63
2024/01/29 09:47:26;;;;;;;5.03;4.53;;;19.20;47.90;;;;;;5053787;28;20524;-65
2024/01/29 09:49:51;;;;;;;5.17;3.90;;;19.10;47.90;;;;;;5053678;28;20469;-64
2024/01/29 09:52:17;;;;;;;3.40;3.10;;;19.20;48.10;;;;;;5053199;28;20925;-64
2024/01/29 09:54:45;;;;;;;4.40;2.70;;;19.20;47.60;;;;;;5053471;28;20181;-65
2024/01/29 09:57:12;;;;;;;4.90;3.13;;;19.20;46.80;;;;;;5053517;28;20177;-64
2024/01/29 09:59:39;;;;;;;6.20;2.60;;;19.20;46.80;;;;;;5053398;28;20798;-64
2024/01/29 10:02:05;;;;;;;2.40;2.20;;;19.30;46.50;;;;;;5053098;28;20978;-65
2024/01/29 10:04:31;;;;;;;3.10;1.90;;;19.30;46.10;;;;;;5053445;28;20909;-65
2024/01/29 10:06:56;;;;;;;4.60;2.80;;;19.30;46.00;;;;;;5053270;28;20426;-65
2024/01/29 10:09:22;;;;;;;4.10;2.83;;;19.20;46.40;;;;;;5053218;28;20177;-65
2024/01/29 10:11:49;;;;;;;3.27;2.57;;;18.90;45.80;;;;;;5053369;28;20174;-65
2024/01/29 10:14:15;;;;;;;2.83;2.43;;;18.60;45.60;;;;;;5052973;28;20573;-64
2024/01/29 10:16:41;;;;;;;2.50;2.30;;;18.40;45.00;;;;;;5053225;28;20419;-65
2024/01/29 10:19:07;;;;;;;2.97;2.77;;;18.40;45.30;;;;;;5053194;28;20445;-65
2024/01/29 10:21:42;;;;;;;2.63;2.40;;;18.40;45.10;;;;;;5053251;28;20386;-64
2024/01/29 10:24:13;;;;;;;2.00;1.90;;;18.30;46.10;;;;;;5052747;28;20210;-64
2024/01/29 10:26:40;;;;;;;2.03;1.93;;;18.10;49.10;;;;;;5052486;28;20459;-64
2024/01/29 10:29:07;;;;;;;3.83;3.53;;;18.20;49.60;;;;;;5052912;28;20440;-64
2024/01/29 10:31:33;;;;;;;3.47;3.20;;;18.30;49.50;;;;;;5052743;28;20430;-64
2024/01/29 10:34:00;;;;;;;3.17;2.97;;;18.40;49.90;;;;;;5052644;28;20427;-64
2024/01/29 10:36:26;;;;;;;9.80;2.97;;;18.40;50.50;;;;;;5052755;28;20401;-64
2024/01/29 10:38:53;;;;;;;3.07;2.77;;;18.70;46.90;;;;;;5052715;28;20499;-64
2024/01/29 10:41:21;;;;;;;2.43;1.70;;;19.20;46.20;;;;;;5052624;28;20404;-64
2024/01/29 10:43:51;;;;;;;4.30;2.60;;;19.70;46.30;;;;;;5051093;28;20810;-63
2024/01/29 10:46:21;;;;;;;2.23;1.90;;;20.30;45.50;;;;;;5052620;28;20811;-63
2024/01/29 10:48:48;;;;;;;2.97;1.50;;;20.70;43.70;;;;;;5052611;28;20559;-64
2024/01/29 10:51:15;;;;;;;1.50;1.40;;;21.10;42.40;;;;;;5052150;28;20390;-64
2024/01/29 10:53:42;;;;;;;2.13;1.90;;;21.40;41.80;;;;;;5051640;28;20436;-64
2024/01/29 10:56:08;;;;;;;2.60;1.83;;;21.60;41.10;;;;;;5054160;28;20402;-64
2024/01/29 10:58:36;;;;;;;2.30;1.90;;;21.80;40.60;;;;;;5052256;28;20383;-64
2024/01/29 11:01:03;;;;;;;1.50;1.40;;;21.90;40.00;;;;;;5052169;28;20466;-64
2024/01/29 11:03:30;;;;;;;2.30;1.80;;;21.80;40.20;;;;;;5051912;28;20459;-64
2024/01/29 11:06:18;;;;;;;2.20;2.00;;;21.70;42.00;;;;;;5052173;28;20387;-63
2024/01/29 11:08:49;;;;;;;3.17;2.67;;;21.50;40.40;;;;;;5052308;28;20983;-62
2024/01/29 11:11:15;;;;;;;3.23;2.20;;;21.30;40.80;;;;;;5052059;28;20447;-63
2024/01/29 11:13:41;;;;;;;1.93;1.83;;;21.00;42.10;;;;;;5051928;28;21129;-62
2024/01/29 11:16:07;;;;;;;2.70;1.87;;;20.40;41.80;;;;;;5051977;28;20647;-63
2024/01/29 11:18:34;;;;;;;2.20;1.80;;;19.90;43.20;;;;;;5052181;28;20394;-65
2024/01/29 11:21:00;;;;;;;1.83;1.70;;;19.50;44.40;;;;;;5051824;28;20542;-64
2024/01/29 11:23:28;;;;;;;3.43;1.97;;;19.00;43.20;;;;;;5051838;28;20801;-62
2024/01/29 11:25:58;;;;;;;2.50;1.77;;;18.30;47.10;;;;;;5051766;28;20399;-62
2024/01/29 11:28:27;;;;;;;1.70;1.60;;;17.80;45.80;;;;;;5051842;28;20409;-62
2024/01/29 11:30:53;;;;;;;2.20;1.70;;;17.50;47.70;;;;;;5051819;28;20404;-63
2024/01/29 11:33:19;;;;;;;2.50;1.93;;;17.20;46.40;;;;;;5051642;28;20451;-62
2024/01/29 11:35:46;;;;;;;1.60;1.50;;;17.00;46.80;;;;;;5051926;28;20809;-62
2024/01/29 11:38:13;;;;;;;2.80;1.93;;;16.70;47.50;;;;;;5051014;28;20410;-62
2024/01/29 11:40:43;;;;;;;2.10;1.30;;;16.50;51.80;;;;;;5051611;28;20834;-63
2024/01/29 11:43:17;;;;;;;2.50;2.00;;;16.30;49.60;;;;;;5051288;28;20515;-62
2024/01/29 11:45:57;;;;;;;2.57;1.60;;;16.20;50.70;;;;;;5051834;28;20415;-62
2024/01/29 11:48:26;;;;;;;2.70;2.00;;;16.20;51.00;;;;;;5051700;28;20434;-63
2024/01/29 11:50:54;;;;;;;2.00;1.80;;;16.10;53.80;;;;;;5051522;28;20418;-62
2024/01/29 11:53:27;;;;;;;3.50;1.60;;;16.10;52.40;;;;;;5051259;28;20450;-62
2024/01/29 11:55:53;;;;;;;1.57;1.47;;;15.90;52.50;;;;;;5051539;28;20420;-62
2024/01/29 11:58:21;;;;;;;1.50;1.40;;;15.80;50.50;;;;;;5051654;28;20408;-62
2024/01/29 12:00:49;;;;;;;1.37;1.27;;;15.80;50.70;;;;;;5051411;28;20400;-63
2024/01/29 12:03:23;;;;;;;3.10;1.60;;;15.80;51.10;;;;;;5051321;28;20807;-62
2024/01/29 12:05:49;;;;;;;1.40;1.30;;;15.80;49.70;;;;;;5051505;28;20462;-62
2024/01/29 12:08:16;;;;;;;10.00;1.70;;;15.80;49.70;;;;;;5051183;28;20997;-62
2024/01/29 12:10:43;;;;;;;2.57;1.33;;;15.80;49.80;;;;;;5051227;28;20440;-62
2024/01/29 12:13:16;;;;;;;2.27;1.83;;;15.70;49.00;;;;;;5051074;28;20426;-62
2024/01/29 12:15:41;;;;;;;5.70;1.37;;;15.60;48.70;;;;;;5051311;28;20396;-62
2024/01/29 12:18:19;;;;;;;1.50;1.40;;;15.50;49.40;;;;;;5052371;28;20975;-62
2024/01/29 12:20:47;;;;;;;1.70;1.60;;;15.40;50.70;;;;;;5051102;28;20181;-63
2024/01/29 12:23:13;;;;;;;2.37;1.23;;;15.30;50.70;;;;;;5051166;28;20428;-62
2024/01/29 12:25:39;;;;;;;1.23;1.10;;;15.10;50.10;;;;;;5051261;28;20423;-62
2024/01/29 12:28:12;;;;;;;1.33;1.23;;;15.00;50.50;;;;;;5051159;28;20448;-62
2024/01/29 12:30:39;;;;;;;2.50;1.73;;;14.90;49.90;;;;;;5051038;28;20854;-62
2024/01/29 12:33:07;;;;;;;4.50;1.57;;;14.70;50.80;;;;;;5050940;28;20523;-63
2024/01/29 12:35:36;;;;;;;2.70;1.30;;;14.70;51.70;;;;;;5051092;28;20416;-62
2024/01/29 12:38:06;;;;;;;1.97;1.77;;;14.70;51.90;;;;;;5051101;28;20523;-62
2024/01/29 12:40:32;;;;;;;1.70;1.60;;;14.60;51.30;;;;;;5050918;28;20405;-63
2024/01/29 12:43:02;;;;;;;1.53;1.43;;;14.50;50.40;;;;;;5050769;28;20436;-62
2024/01/29 12:45:28;;;;;;;3.03;1.53;;;14.50;49.70;;;;;;5050933;28;20413;-63
2024/01/29 12:48:17;;;;;;;3.27;1.70;;;14.40;52.20;;;;;;5051173;28;20446;-62